< < Back
Terminal Aerodrome Forecast


Current Version              Previous Versions:   1  2  3  4  5  6  7  8  9  

Terminal Aerodrome Forecast

360
FTUS44 KMRX 242321
TAFTYS
TAF
KTYS 242321Z 2500/2524 VRB03KT P6SM SCT100 BKN250
     FM250700 VRB04KT P6SM VCSH BKN040 OVC080
     FM251000 VRB04KT 5SM -SHRA BR OVC035
     FM251400 23009KT 4SM -SHRA BR VCTS BKN025 OVC040CB
     FM252000 22010KT P6SM VCSH BKN030 OVC060=

Latest METAR

940
SAUS80 KWBC 251600
MTRTYS
METAR KTYS 251553Z VRB04KT 10SM BKN015 BKN110 15/11 A2975 RMK AO2 SLP070
T01500106


USA.gov is the U.S. government's official web portal to all federal, state and local government web resources and services.